Palmersprings, Virginia
Current Conditions -  °F | °C
As of 5:15 AM on Saturday 20 Dec 2014 (Local Time) from KW63 Reporting Station
Clear Clear  
Wind Chill: 26°   Ceiling: Unl
Heat Index: 32°   Visibility: 10mi
Dew Point: 25°   Wind: 6mph
Humidity: 75%   Direction: 60°ENE
Pressure: 30.25"   Gusts: NA
Location:  36.658°N, 78.3793°W
Report Text: KW63 201015Z AUTO 06005KT 10SM CLR 00/M04 A3025 RMK AO1
Loading
Personal Weather Stations






























Interactive Weather Map New forecast layout! Learn more

10-Day Weather Forecast

Advertisements
Track Severe Weather on mobile